Weather at Brussels Airport

Public forecast

Using degrees Celsius for public forecast. Weather courtesy of forecast.io.

Current aviation weather report (METAR) for Brussels Airport

Retrieved 2020/09/22 01:20 UTC (21 minutes ago):

EBBR 220120Z 29003KT 3500 BR NSC 12/11 Q1013 BECMG 1500 BR TEMPO 0400 FG BKN001

Aviation forecast (TAF) for Brussels Airport

Retrieved 2020-09-22 00:27 UTC (1 hour ago):

TAF EBBR 212310Z 2200/2306 VRB03KT CAVOK TEMPO 2202/2207 3500 BR MIFG PROB30 2203/2207 0400 FG VV001